createdAt,value
2022-11-02T00:01:29.682Z,13.80
2022-11-02T00:03:57.625Z,13.80
2022-11-02T00:06:25.535Z,13.80
2022-11-02T00:08:53.407Z,13.70
2022-11-02T00:11:21.245Z,13.70
2022-11-02T00:13:49.100Z,13.70
2022-11-02T00:16:19.420Z,13.70
2022-11-02T00:18:51.240Z,13.70
2022-11-02T00:21:21.491Z,13.70
2022-11-02T00:23:50.226Z,13.60
2022-11-02T00:26:18.625Z,13.60
2022-11-02T00:28:46.636Z,13.70
2022-11-02T00:31:14.455Z,13.60
2022-11-02T00:33:42.276Z,13.50
2022-11-02T00:36:11.826Z,13.40
2022-11-02T00:38:39.680Z,13.40
2022-11-02T00:41:07.742Z,13.20
2022-11-02T00:43:35.869Z,13.10
2022-11-02T00:46:03.795Z,13.00
2022-11-02T00:48:31.873Z,12.90
2022-11-02T00:50:59.737Z,12.90
2022-11-02T00:53:29.134Z,12.80
2022-11-02T00:55:57.007Z,12.70
2022-11-02T00:58:24.825Z,12.80
2022-11-02T01:00:52.812Z,12.70
2022-11-02T01:03:20.645Z,12.50
2022-11-02T01:05:48.502Z,12.50
2022-11-02T01:08:16.383Z,12.50
2022-11-02T01:10:48.206Z,12.50
2022-11-02T01:13:16.435Z,12.60
2022-11-02T01:15:44.334Z,12.60
2022-11-02T01:18:12.163Z,12.50
2022-11-02T01:20:39.994Z,12.50
2022-11-02T01:23:07.836Z,12.40
2022-11-02T01:25:35.696Z,12.30
2022-11-02T01:28:05.296Z,12.30
2022-11-02T01:30:33.834Z,12.20
2022-11-02T01:33:01.693Z,12.30
2022-11-02T01:35:29.549Z,12.30
2022-11-02T01:37:57.385Z,12.50
2022-11-02T01:40:26.216Z,12.70
2022-11-02T01:42:54.342Z,12.90
2022-11-02T01:45:23.576Z,13.00
2022-11-02T01:47:51.410Z,13.00
2022-11-02T01:50:22.836Z,13.00
2022-11-02T01:52:50.721Z,13.20
2022-11-02T01:55:23.726Z,13.20
2022-11-02T01:57:57.268Z,13.30
2022-11-02T02:00:26.521Z,13.40
2022-11-02T02:02:57.781Z,13.50
2022-11-02T02:05:26.661Z,13.50
2022-11-02T02:07:54.865Z,13.50
2022-11-02T02:10:22.912Z,13.70
2022-11-02T02:12:51.213Z,13.80
2022-11-02T02:15:19.402Z,13.90
2022-11-02T02:17:55.139Z,14.00
2022-11-02T02:20:40.804Z,13.90
2022-11-02T02:23:46.035Z,13.90
2022-11-02T02:26:34.232Z,13.90
2022-11-02T02:29:08.852Z,13.90
2022-11-02T02:31:41.306Z,13.80
2022-11-02T02:34:16.614Z,13.90
2022-11-02T02:36:48.736Z,13.90
2022-11-02T02:39:21.233Z,13.90
2022-11-02T02:41:58.281Z,13.90
2022-11-02T02:44:29.912Z,13.90
2022-11-02T02:47:01.803Z,13.90
2022-11-02T02:49:34.782Z,13.90
2022-11-02T02:52:03.851Z,13.90
2022-11-02T02:54:37.223Z,13.80
2022-11-02T02:57:12.094Z,13.80
2022-11-02T02:59:43.470Z,13.80
2022-11-02T03:02:22.857Z,13.80
2022-11-02T03:04:50.795Z,13.70
2022-11-02T03:07:25.064Z,13.70
2022-11-02T03:10:05.976Z,13.60
2022-11-02T03:12:40.337Z,13.50
2022-11-02T03:15:19.493Z,13.50
2022-11-02T03:17:57.343Z,13.50
2022-11-02T03:20:29.493Z,13.50
2022-11-02T03:23:11.308Z,13.50
2022-11-02T03:25:47.937Z,13.50
2022-11-02T03:28:20.213Z,13.50
2022-11-02T03:30:56.108Z,13.50
2022-11-02T03:33:28.947Z,13.70
2022-11-02T03:36:02.617Z,13.60
2022-11-02T03:38:37.937Z,13.60
2022-11-02T03:41:07.121Z,13.60
2022-11-02T03:43:37.103Z,13.70
2022-11-02T03:46:09.385Z,13.60
2022-11-02T03:48:41.629Z,13.50
2022-11-02T03:51:13.281Z,13.50
2022-11-02T03:53:47.033Z,13.50
2022-11-02T03:56:21.185Z,13.40
2022-11-02T03:58:49.037Z,13.50
2022-11-02T04:01:20.271Z,13.50
2022-11-02T04:03:48.826Z,13.50
2022-11-02T04:06:17.279Z,13.50
2022-11-02T04:08:47.421Z,13.50
2022-11-02T04:11:33.453Z,13.60
2022-11-02T04:14:18.911Z,13.50
2022-11-02T04:16:48.127Z,13.60
2022-11-02T04:19:35.754Z,13.60
2022-11-02T04:22:21.217Z,13.60
2022-11-02T04:25:06.619Z,13.60
2022-11-02T04:27:34.787Z,13.60
2022-11-02T04:30:02.651Z,13.60
2022-11-02T04:32:49.119Z,13.60
2022-11-02T04:35:17.206Z,13.70
2022-11-02T04:38:02.985Z,13.60
2022-11-02T04:40:31.040Z,13.60
2022-11-02T04:42:58.890Z,13.50
2022-11-02T04:45:27.205Z,13.40
2022-11-02T04:48:00.890Z,13.50
2022-11-02T04:50:29.046Z,13.50
2022-11-02T04:52:57.827Z,13.50
2022-11-02T04:55:26.135Z,13.50
2022-11-02T04:57:54.277Z,13.60
2022-11-02T05:00:22.872Z,13.50
2022-11-02T05:02:51.573Z,13.50
2022-11-02T05:05:20.847Z,13.40
2022-11-02T05:07:48.728Z,13.40
2022-11-02T05:10:16.635Z,13.40
2022-11-02T05:12:44.532Z,13.30
2022-11-02T05:15:12.382Z,13.30
2022-11-02T05:17:40.250Z,13.40
2022-11-02T05:20:08.765Z,13.40
2022-11-02T05:22:38.016Z,13.40
2022-11-02T05:25:06.440Z,13.40
2022-11-02T05:27:34.302Z,13.30
2022-11-02T05:30:02.111Z,13.30
2022-11-02T05:32:30.022Z,13.40
2022-11-02T05:34:57.924Z,13.40
2022-11-02T05:37:25.774Z,13.30
2022-11-02T05:39:54.971Z,13.20
2022-11-02T05:42:22.901Z,13.10
2022-11-02T05:44:50.780Z,13.10
2022-11-02T05:47:18.658Z,13.10
2022-11-02T05:49:46.539Z,13.10
2022-11-02T05:52:14.461Z,13.20
2022-11-02T05:54:42.452Z,13.20
2022-11-02T05:57:11.657Z,13.20
2022-11-02T05:59:39.496Z,13.20
2022-11-02T06:02:08.103Z,13.10
2022-11-02T06:04:35.955Z,13.10
2022-11-02T06:07:04.307Z,13.10
2022-11-02T06:09:32.157Z,13.00
2022-11-02T06:12:00.035Z,12.90
2022-11-02T06:14:29.228Z,13.00
2022-11-02T06:16:57.894Z,12.90
2022-11-02T06:19:25.755Z,12.90
2022-11-02T06:21:53.589Z,12.90
2022-11-02T06:24:21.403Z,13.00
2022-11-02T06:26:49.262Z,12.90
2022-11-02T06:29:17.154Z,12.90
2022-11-02T06:31:46.303Z,13.10
2022-11-02T06:34:14.236Z,13.10
2022-11-02T06:36:42.071Z,13.10
2022-11-02T06:39:09.894Z,13.10
2022-11-02T06:41:37.744Z,13.30
2022-11-02T06:44:05.883Z,13.30
2022-11-02T06:46:33.746Z,13.30
2022-11-02T06:49:03.108Z,13.40
2022-11-02T06:51:30.955Z,13.40
2022-11-02T06:53:58.815Z,13.40
2022-11-02T06:56:26.662Z,13.40
2022-11-02T06:58:54.548Z,13.40
2022-11-02T07:01:22.469Z,13.50
2022-11-02T07:03:50.497Z,13.40
2022-11-02T07:06:19.651Z,13.50
2022-11-02T07:08:47.517Z,13.60
2022-11-02T07:11:16.257Z,13.50
2022-11-02T07:13:44.492Z,13.50
2022-11-02T07:16:12.535Z,13.50
2022-11-02T07:18:41.280Z,13.50
2022-11-02T07:21:11.393Z,13.40
2022-11-02T07:23:40.709Z,13.40
2022-11-02T07:26:08.547Z,13.50
2022-11-02T07:28:38.132Z,13.50
2022-11-02T07:31:06.460Z,13.60
2022-11-02T07:33:34.342Z,13.60
2022-11-02T07:36:05.298Z,13.60
2022-11-02T07:38:33.182Z,13.50
2022-11-02T07:41:02.529Z,13.60
2022-11-02T07:43:30.561Z,13.60
2022-11-02T07:45:58.427Z,13.60
2022-11-02T07:48:26.305Z,13.60
2022-11-02T07:50:54.169Z,13.60
2022-11-02T07:53:22.287Z,13.60
2022-11-02T07:55:50.267Z,13.70
2022-11-02T07:58:19.541Z,13.70
2022-11-02T08:00:47.487Z,13.70
2022-11-02T08:03:15.673Z,13.70
2022-11-02T08:05:44.291Z,13.80
2022-11-02T08:08:14.741Z,13.90
2022-11-02T08:10:43.164Z,14.00
2022-11-02T08:13:12.529Z,14.00
2022-11-02T08:15:42.264Z,14.00
2022-11-02T08:18:14.318Z,14.10
2022-11-02T08:20:42.530Z,14.10
2022-11-02T08:23:11.245Z,14.20
2022-11-02T08:25:40.536Z,14.30
2022-11-02T08:28:12.357Z,14.50
2022-11-02T08:30:41.634Z,14.50
2022-11-02T08:33:13.450Z,14.60
2022-11-02T08:35:41.679Z,14.80
2022-11-02T08:38:10.360Z,14.80
2022-11-02T08:40:39.061Z,14.90
2022-11-02T08:43:08.693Z,15.00
2022-11-02T08:46:12.783Z,15.20
2022-11-02T08:48:28.083Z,15.40
2022-11-02T08:50:56.768Z,15.50
2022-11-02T08:53:24.641Z,15.70
2022-11-02T08:55:52.450Z,15.60
2022-11-02T08:58:20.374Z,15.50
2022-11-02T09:00:48.373Z,15.50
2022-11-02T09:03:20.606Z,15.50
2022-11-02T09:05:58.732Z,15.50
2022-11-02T09:08:27.763Z,15.50
2022-11-02T09:10:59.934Z,15.60
2022-11-02T09:13:28.111Z,15.60
2022-11-02T09:15:58.585Z,15.50
2022-11-02T09:18:26.412Z,15.50
2022-11-02T09:20:55.855Z,15.30
2022-11-02T09:23:24.441Z,15.50
2022-11-02T09:25:52.340Z,15.70
2022-11-02T09:28:20.180Z,15.80
2022-11-02T09:30:48.089Z,15.90
2022-11-02T09:33:16.626Z,16.20
2022-11-02T09:35:46.271Z,16.30
2022-11-02T09:38:16.023Z,16.40
2022-11-02T09:40:47.151Z,16.80
2022-11-02T09:43:24.507Z,17.10
2022-11-02T09:45:59.040Z,17.40
2022-11-02T09:48:31.277Z,17.50
2022-11-02T09:51:05.586Z,17.40
2022-11-02T09:53:51.649Z,17.20
2022-11-02T09:56:20.755Z,17.10
2022-11-02T09:58:54.619Z,17.00
2022-11-02T10:01:35.418Z,16.90
2022-11-02T10:04:25.919Z,17.00
2022-11-02T10:07:02.584Z,16.90
2022-11-02T10:09:36.347Z,16.90
2022-11-02T10:12:12.905Z,16.90
2022-11-02T10:14:47.371Z,17.00
2022-11-02T10:17:19.028Z,16.90
2022-11-02T10:19:52.119Z,16.90
2022-11-02T10:22:21.317Z,17.00
2022-11-02T10:24:54.302Z,17.10
2022-11-02T10:27:27.207Z,17.10
2022-11-02T10:30:00.123Z,17.20
2022-11-02T10:32:27.995Z,17.20
2022-11-02T10:34:59.238Z,17.10
2022-11-02T10:37:52.006Z,16.80
2022-11-02T10:40:40.810Z,16.80
2022-11-02T10:43:20.088Z,16.90
2022-11-02T10:46:04.203Z,17.20
2022-11-02T10:48:40.735Z,17.30
2022-11-02T10:51:10.397Z,17.50
2022-11-02T10:53:42.483Z,17.60
2022-11-02T10:56:18.357Z,18.10
2022-11-02T10:58:52.215Z,18.20
2022-11-02T11:01:20.263Z,18.20
2022-11-02T11:03:56.634Z,18.00
2022-11-02T11:06:25.676Z,18.30
2022-11-02T11:08:53.795Z,18.60
2022-11-02T11:11:26.385Z,18.70
2022-11-02T11:16:50.776Z,19.20
2022-11-02T11:19:44.417Z,19.40
2022-11-02T11:22:27.072Z,19.40
2022-11-02T11:25:07.551Z,19.50
2022-11-02T11:27:46.246Z,19.60
2022-11-02T11:30:58.510Z,19.50
2022-11-02T11:33:20.415Z,19.30
2022-11-02T11:35:51.484Z,19.20
2022-11-02T11:38:21.765Z,19.30
2022-11-02T11:40:54.326Z,19.20
2022-11-02T11:43:26.945Z,19.20
2022-11-02T11:46:02.096Z,19.40
2022-11-02T11:48:37.944Z,19.50
2022-11-02T11:51:22.892Z,19.70
2022-11-02T11:54:07.875Z,19.70
2022-11-02T11:56:36.174Z,19.50
2022-11-02T11:59:05.394Z,19.50
2022-11-02T12:01:41.069Z,19.50
2022-11-02T12:04:09.535Z,19.50
2022-11-02T12:06:46.313Z,19.50
2022-11-02T12:09:26.337Z,19.30
2022-11-02T12:12:03.476Z,19.10
2022-11-02T12:14:43.016Z,18.90
2022-11-02T12:17:27.981Z,18.60
2022-11-02T12:20:07.465Z,18.50
2022-11-02T12:22:45.743Z,18.40
2022-11-02T12:25:23.467Z,18.30
2022-11-02T12:27:59.048Z,18.30
2022-11-02T12:30:36.947Z,18.20
2022-11-02T12:33:22.923Z,18.00
2022-11-02T12:36:11.738Z,18.10
2022-11-02T12:38:53.274Z,17.90
2022-11-02T12:41:36.592Z,17.80
2022-11-02T12:44:18.528Z,17.60
2022-11-02T12:46:56.905Z,17.60
2022-11-02T12:49:36.407Z,17.50
2022-11-02T12:52:14.255Z,17.50
2022-11-02T12:54:46.854Z,17.30
2022-11-02T12:57:18.534Z,17.30
2022-11-02T12:59:47.834Z,17.30
2022-11-02T13:02:20.752Z,17.10
2022-11-02T13:04:53.324Z,17.00
2022-11-02T13:07:27.562Z,17.00
2022-11-02T13:10:01.729Z,16.90
2022-11-02T13:12:33.287Z,16.90
2022-11-02T13:15:02.411Z,16.80
2022-11-02T13:17:39.895Z,16.90
2022-11-02T13:20:17.118Z,16.90
2022-11-02T13:22:47.723Z,16.80
2022-11-02T13:25:19.335Z,16.80
2022-11-02T13:27:52.620Z,16.90
2022-11-02T13:30:21.385Z,16.70
2022-11-02T13:32:55.585Z,16.70
2022-11-02T13:35:33.098Z,16.60
2022-11-02T13:38:06.902Z,16.60
2022-11-02T13:40:42.039Z,16.60
2022-11-02T13:43:32.829Z,16.60
2022-11-02T13:46:26.427Z,16.60
2022-11-02T13:49:02.591Z,16.60
2022-11-02T13:51:37.563Z,16.50
2022-11-02T13:54:12.952Z,16.50
2022-11-02T13:56:41.661Z,16.50
2022-11-02T13:59:19.140Z,16.50
2022-11-02T14:01:47.495Z,16.50
2022-11-02T14:04:17.470Z,16.40
2022-11-02T14:06:49.632Z,16.40
2022-11-02T14:09:28.231Z,16.40
2022-11-02T14:12:28.006Z,16.40
2022-11-02T14:15:33.116Z,16.30
2022-11-02T14:18:23.865Z,16.30
2022-11-02T14:20:53.193Z,16.30
2022-11-02T14:23:39.644Z,16.20
2022-11-02T14:26:34.683Z,16.10
2022-11-02T14:29:26.473Z,16.10
2022-11-02T14:32:03.464Z,16.00
2022-11-02T14:34:51.278Z,16.10
2022-11-02T14:37:44.452Z,16.00
2022-11-02T14:40:25.581Z,16.00
2022-11-02T14:43:10.737Z,15.90
2022-11-02T14:45:53.645Z,15.80
2022-11-02T14:48:21.530Z,15.80
2022-11-02T14:51:01.718Z,15.70
2022-11-02T14:53:33.824Z,15.60
2022-11-02T14:56:01.774Z,15.60
2022-11-02T14:58:34.085Z,15.60
2022-11-02T15:01:04.565Z,15.50
2022-11-02T15:03:38.893Z,15.50
2022-11-02T15:06:14.455Z,15.40
2022-11-02T15:08:53.386Z,15.30
2022-11-02T15:11:48.141Z,15.30
2022-11-02T15:15:00.243Z,15.20
2022-11-02T15:17:59.640Z,15.10
2022-11-02T15:20:32.665Z,15.00
2022-11-02T15:23:31.240Z,14.90
2022-11-02T15:26:06.085Z,14.90
2022-11-02T15:28:34.858Z,14.80
2022-11-02T15:31:06.272Z,14.70
2022-11-02T15:33:40.585Z,14.60
2022-11-02T15:36:15.527Z,14.60
2022-11-02T15:38:49.268Z,14.60
2022-11-02T15:41:27.229Z,14.50
2022-11-02T15:44:13.031Z,14.30
2022-11-02T15:46:53.501Z,14.30
2022-11-02T15:49:34.814Z,14.20
2022-11-02T15:52:11.074Z,14.20
2022-11-02T15:54:58.379Z,14.10
2022-11-02T15:57:37.684Z,14.00
2022-11-02T16:00:16.756Z,13.90
2022-11-02T16:02:48.043Z,13.80
2022-11-02T16:05:22.748Z,13.80
2022-11-02T16:10:40.473Z,13.90
2022-11-02T16:13:18.210Z,13.80
2022-11-02T16:15:46.785Z,13.70
2022-11-02T16:18:25.078Z,13.70
2022-11-02T16:20:55.070Z,13.70
2022-11-02T16:23:26.089Z,13.50
2022-11-02T16:25:55.414Z,13.40
2022-11-02T16:28:26.899Z,13.50
2022-11-02T16:31:06.502Z,13.40
2022-11-02T16:33:40.878Z,13.30
2022-11-02T16:36:09.787Z,13.20
2022-11-02T16:38:38.639Z,13.10
2022-11-02T16:41:09.875Z,13.10
2022-11-02T16:43:45.842Z,13.00
2022-11-02T16:46:18.081Z,12.90
2022-11-02T16:49:16.381Z,12.80
2022-11-02T16:51:51.195Z,12.60
2022-11-02T16:54:31.579Z,12.60
2022-11-02T16:57:08.588Z,12.60
2022-11-02T16:59:48.925Z,12.80
2022-11-02T17:02:17.113Z,12.80
2022-11-02T17:04:48.265Z,12.80
2022-11-02T17:07:22.104Z,12.60
2022-11-02T17:09:53.923Z,12.60
2022-11-02T17:12:33.697Z,12.60
2022-11-02T17:15:05.583Z,12.60
2022-11-02T17:17:39.299Z,12.50
2022-11-02T17:20:19.166Z,12.40
2022-11-02T17:22:58.682Z,12.30
2022-11-02T17:25:28.784Z,12.20
2022-11-02T17:27:57.739Z,12.20
2022-11-02T17:30:47.310Z,12.10
2022-11-02T17:33:24.922Z,11.90
2022-11-02T17:35:54.565Z,11.80
2022-11-02T17:38:25.639Z,11.70
2022-11-02T17:40:53.842Z,11.70
2022-11-02T17:43:21.717Z,11.80
2022-11-02T17:45:57.258Z,11.80
2022-11-02T17:48:25.760Z,11.90
2022-11-02T17:50:55.264Z,11.90
2022-11-02T17:53:24.056Z,11.70
2022-11-02T17:55:52.182Z,11.80
2022-11-02T17:58:20.056Z,11.80
2022-11-02T18:00:48.026Z,11.70
2022-11-02T18:03:22.385Z,11.60
2022-11-02T18:05:55.824Z,11.50
2022-11-02T18:08:26.761Z,11.50
2022-11-02T18:10:54.806Z,11.40
2022-11-02T18:13:24.459Z,11.40
2022-11-02T18:15:52.355Z,11.40
2022-11-02T18:18:21.558Z,11.40
2022-11-02T18:20:49.485Z,11.30
2022-11-02T18:23:19.640Z,11.10
2022-11-02T18:25:47.761Z,10.90
2022-11-02T18:28:15.599Z,10.90
2022-11-02T18:30:44.494Z,10.90
2022-11-02T18:33:14.107Z,10.90
2022-11-02T18:35:44.221Z,10.90
2022-11-02T18:38:12.836Z,11.00
2022-11-02T18:40:40.710Z,10.90
2022-11-02T18:43:09.030Z,11.00
2022-11-02T18:45:37.294Z,11.00
2022-11-02T18:48:05.644Z,11.00
2022-11-02T18:50:33.897Z,11.00
2022-11-02T18:53:03.128Z,10.90
2022-11-02T18:55:31.074Z,10.80
2022-11-02T18:57:59.049Z,10.80
2022-11-02T19:00:26.871Z,10.90
2022-11-02T19:02:54.705Z,10.80
2022-11-02T19:05:40.002Z,10.80
2022-11-02T19:08:28.406Z,10.70
2022-11-02T19:10:56.299Z,10.60
2022-11-02T19:13:24.129Z,10.50
2022-11-02T19:15:51.929Z,10.60
2022-11-02T19:18:19.761Z,10.50
2022-11-02T19:20:47.634Z,10.40
2022-11-02T19:23:16.831Z,10.40
2022-11-02T19:25:51.260Z,10.30
2022-11-02T19:28:19.247Z,10.20
2022-11-02T19:30:47.138Z,10.10
2022-11-02T19:33:15.027Z,10.10
2022-11-02T19:35:42.837Z,10.20
2022-11-02T19:38:10.737Z,10.10
2022-11-02T19:40:39.885Z,10.10
2022-11-02T19:43:08.222Z,10.10
2022-11-02T19:45:36.189Z,10.10
2022-11-02T19:48:04.481Z,10.10
2022-11-02T19:50:32.643Z,10.10
2022-11-02T19:53:01.252Z,10.00
2022-11-02T19:55:29.701Z,10.00
2022-11-02T19:57:58.957Z,10.00
2022-11-02T20:00:26.812Z,10.10
2022-11-02T20:02:54.873Z,10.20
2022-11-02T20:05:22.801Z,10.10
2022-11-02T20:07:52.449Z,10.00
2022-11-02T20:10:20.314Z,10.00
2022-11-02T20:12:48.184Z,10.00
2022-11-02T20:15:17.466Z,10.00
2022-11-02T20:18:05.629Z,9.90
2022-11-02T20:20:33.264Z,10.00
2022-11-02T20:23:01.340Z,9.80
2022-11-02T20:25:29.295Z,9.70
2022-11-02T20:27:57.161Z,9.60
2022-11-02T20:30:26.353Z,9.70
2022-11-02T20:32:54.222Z,9.80
2022-11-02T20:35:25.483Z,9.90
2022-11-02T20:37:54.555Z,10.00
2022-11-02T20:40:22.454Z,10.10
2022-11-02T20:42:50.834Z,9.90
2022-11-02T20:45:18.904Z,9.70
2022-11-02T20:47:48.089Z,9.50
2022-11-02T20:50:18.334Z,9.50
2022-11-02T20:52:47.483Z,9.50
2022-11-02T20:55:15.413Z,9.60
2022-11-02T20:57:43.262Z,9.60
2022-11-02T21:00:13.086Z,9.50
2022-11-02T21:02:40.952Z,9.50
2022-11-02T21:05:10.688Z,9.40
2022-11-02T21:07:38.521Z,9.30
2022-11-02T21:10:07.757Z,9.20
2022-11-02T21:12:53.244Z,9.20
2022-11-02T21:15:21.066Z,9.10
2022-11-02T21:17:48.957Z,9.10
2022-11-02T21:20:33.613Z,9.30
2022-11-02T21:23:02.797Z,9.20
2022-11-02T21:25:31.136Z,9.20
2022-11-02T21:27:58.984Z,9.10
2022-11-02T21:30:27.584Z,9.00
2022-11-02T21:32:55.753Z,8.80
2022-11-02T21:35:25.130Z,8.70
2022-11-02T21:37:59.267Z,8.60
2022-11-02T21:40:30.207Z,8.50
2022-11-02T21:42:58.033Z,8.50
2022-11-02T21:45:26.444Z,8.60
2022-11-02T21:47:54.402Z,8.50
2022-11-02T21:50:22.240Z,8.40
2022-11-02T21:52:51.431Z,8.60
2022-11-02T21:55:19.271Z,8.60
2022-11-02T21:57:47.299Z,8.80
2022-11-02T22:00:16.302Z,8.80
2022-11-02T22:02:43.267Z,8.70
2022-11-02T22:05:31.205Z,8.70
2022-11-02T22:08:17.704Z,8.60
2022-11-02T22:10:45.628Z,8.50
2022-11-02T22:13:30.914Z,8.50
2022-11-02T22:15:58.771Z,8.60
2022-11-02T22:18:26.611Z,8.60
2022-11-02T22:20:55.600Z,8.70
2022-11-02T22:23:24.781Z,8.70
2022-11-02T22:25:58.993Z,8.60
2022-11-02T22:28:30.407Z,8.50
2022-11-02T22:30:58.401Z,8.60
2022-11-02T22:33:26.683Z,8.50
2022-11-02T22:35:54.570Z,8.50
2022-11-02T22:38:41.307Z,8.60
2022-11-02T22:41:09.168Z,8.50
2022-11-02T22:43:36.997Z,8.50
2022-11-02T22:46:06.593Z,8.30
2022-11-02T22:48:35.469Z,8.40
2022-11-02T22:51:04.287Z,8.40
2022-11-02T22:53:34.205Z,8.40
2022-11-02T22:56:03.578Z,8.40
2022-11-02T22:58:32.848Z,8.40
2022-11-02T23:01:01.037Z,8.40
2022-11-02T23:03:31.549Z,8.40
2022-11-02T23:05:59.570Z,8.30
2022-11-02T23:11:14.930Z,8.30
2022-11-02T23:13:43.631Z,8.20
2022-11-02T23:16:24.845Z,8.30
2022-11-02T23:19:18.923Z,8.40
2022-11-02T23:22:09.134Z,8.40
2022-11-02T23:24:54.387Z,8.30
2022-11-02T23:27:23.643Z,8.30
2022-11-02T23:30:09.128Z,8.30
2022-11-02T23:32:37.545Z,8.40
2022-11-02T23:35:23.696Z,8.50
2022-11-02T23:38:01.036Z,8.50
2022-11-02T23:40:28.975Z,8.50
2022-11-02T23:42:58.309Z,8.40
2022-11-02T23:45:26.147Z,8.40
2022-11-02T23:48:01.256Z,8.40
2022-11-02T23:50:49.207Z,8.40
2022-11-02T23:53:33.218Z,8.40
2022-11-02T23:56:18.546Z,8.50
2022-11-02T23:58:48.114Z,8.50
